createdAt,value
2023-02-18T00:00:13.881Z,14.90
2023-02-18T00:03:16.878Z,19.63
2023-02-18T00:06:26.159Z,14.98
2023-02-18T00:09:29.652Z,11.00
2023-02-18T00:12:33.793Z,9.23
2023-02-18T00:15:37.675Z,15.23
2023-02-18T00:18:41.709Z,7.10
2023-02-18T00:21:45.663Z,7.05
2023-02-18T00:24:49.491Z,9.30
2023-02-18T00:27:53.548Z,11.20
2023-02-18T00:30:57.333Z,18.40
2023-02-18T00:34:01.465Z,14.60
2023-02-18T00:37:05.328Z,13.07
2023-02-18T00:40:09.932Z,8.98
2023-02-18T00:43:12.896Z,14.18
2023-02-18T00:46:16.724Z,8.30
2023-02-18T00:49:19.738Z,7.72
2023-02-18T00:52:23.024Z,7.95
2023-02-18T00:55:25.906Z,15.13
2023-02-18T00:58:30.081Z,11.88
2023-02-18T01:01:35.777Z,9.27
2023-02-18T01:04:39.349Z,12.43
2023-02-18T01:07:43.095Z,6.00
2023-02-18T01:10:49.896Z,9.95
2023-02-18T01:13:54.102Z,11.65
2023-02-18T01:16:57.536Z,12.43
2023-02-18T01:20:01.479Z,9.82
2023-02-18T01:23:06.872Z,11.10
2023-02-18T01:26:12.056Z,10.67
2023-02-18T01:29:15.098Z,15.85
2023-02-18T01:32:19.302Z,18.23
2023-02-18T01:35:23.255Z,18.40
2023-02-18T01:38:26.517Z,13.82
2023-02-18T01:41:29.516Z,9.98
2023-02-18T01:44:34.840Z,17.13
2023-02-18T01:47:37.830Z,12.37
2023-02-18T01:50:53.754Z,15.20
2023-02-18T01:54:03.787Z,17.13
2023-02-18T01:57:17.426Z,10.13
2023-02-18T02:00:24.252Z,21.67
2023-02-18T02:03:28.582Z,8.60
2023-02-18T02:06:31.890Z,11.05
2023-02-18T02:09:36.080Z,10.73
2023-02-18T02:12:43.438Z,12.55
2023-02-18T02:16:01.048Z,12.15
2023-02-18T02:19:32.772Z,11.40
2023-02-18T02:22:44.579Z,15.48
2023-02-18T02:26:02.508Z,14.73
2023-02-18T02:29:46.143Z,19.57
2023-02-18T02:33:12.285Z,14.50
2023-02-18T02:36:22.113Z,14.00
2023-02-18T02:39:33.929Z,11.57
2023-02-18T02:42:47.034Z,17.35
2023-02-18T02:45:59.484Z,17.63
2023-02-18T02:49:07.404Z,14.85
2023-02-18T02:52:31.537Z,18.20
2023-02-18T02:55:35.100Z,11.30
2023-02-18T02:58:39.342Z,12.35
2023-02-18T03:02:03.057Z,8.50
2023-02-18T03:05:11.925Z,6.00
2023-02-18T03:08:21.446Z,4.68
2023-02-18T03:11:25.562Z,6.68
2023-02-18T03:14:33.304Z,8.70
2023-02-18T03:17:43.425Z,4.50
2023-02-18T03:21:01.554Z,4.90
2023-02-18T03:24:23.781Z,5.57
2023-02-18T03:27:44.038Z,4.57
2023-02-18T03:30:55.846Z,7.78
2023-02-18T03:34:10.304Z,5.40
2023-02-18T03:37:15.725Z,4.32
2023-02-18T03:40:19.525Z,3.70
2023-02-18T03:43:22.879Z,3.38
2023-02-18T03:46:25.903Z,3.37
2023-02-18T03:49:29.225Z,4.60
2023-02-18T03:52:32.364Z,5.10
2023-02-18T03:55:36.045Z,4.03
2023-02-18T03:58:40.017Z,4.60
2023-02-18T04:01:43.163Z,6.25
2023-02-18T04:04:47.093Z,4.75
2023-02-18T04:07:50.760Z,3.93
2023-02-18T04:10:54.885Z,3.30
2023-02-18T04:13:58.498Z,4.38
2023-02-18T04:17:01.946Z,5.07
2023-02-18T04:20:05.715Z,4.60
2023-02-18T04:23:09.303Z,3.45
2023-02-18T04:26:12.638Z,4.30
2023-02-18T04:29:16.291Z,3.58
2023-02-18T04:32:19.882Z,3.42
2023-02-18T04:35:23.631Z,5.68
2023-02-18T04:38:27.227Z,4.67
2023-02-18T04:41:30.620Z,5.75
2023-02-18T04:44:33.512Z,5.82
2023-02-18T04:47:36.469Z,5.50
2023-02-18T04:50:39.390Z,5.30
2023-02-18T04:53:42.743Z,4.78
2023-02-18T04:56:45.563Z,5.72
2023-02-18T04:59:49.321Z,3.55
2023-02-18T05:02:52.995Z,4.05
2023-02-18T05:05:56.705Z,5.00
2023-02-18T05:09:01.016Z,3.05
2023-02-18T05:12:04.126Z,3.33
2023-02-18T05:15:08.636Z,5.22
2023-02-18T05:18:12.238Z,4.65
2023-02-18T05:21:15.867Z,4.80
2023-02-18T05:24:18.804Z,3.90
2023-02-18T05:27:22.155Z,4.00
2023-02-18T05:30:25.364Z,4.47
2023-02-18T05:33:28.766Z,3.00
2023-02-18T05:36:32.355Z,3.75
2023-02-18T05:39:35.644Z,3.13
2023-02-18T05:42:39.549Z,3.95
2023-02-18T05:45:43.404Z,5.40
2023-02-18T05:48:46.260Z,3.40
2023-02-18T05:51:49.966Z,3.70
2023-02-18T05:54:53.264Z,3.57
2023-02-18T05:57:56.875Z,4.68
2023-02-18T06:01:00.424Z,4.38
2023-02-18T06:04:04.408Z,3.90
2023-02-18T06:07:08.508Z,4.60
2023-02-18T06:10:12.849Z,3.63
2023-02-18T06:13:16.011Z,2.67
2023-02-18T06:16:19.481Z,3.42
2023-02-18T06:19:23.701Z,4.38
2023-02-18T06:22:27.800Z,5.78
2023-02-18T06:25:30.625Z,6.83
2023-02-18T06:28:34.800Z,6.72
2023-02-18T06:31:38.672Z,4.82
2023-02-18T06:34:42.701Z,4.30
2023-02-18T06:37:46.966Z,3.47
2023-02-18T06:40:50.353Z,4.20
2023-02-18T06:43:53.409Z,3.25
2023-02-18T06:46:57.389Z,3.67
2023-02-18T06:50:01.054Z,4.93
2023-02-18T06:53:04.969Z,5.25
2023-02-18T06:56:09.021Z,5.35
2023-02-18T06:59:13.280Z,5.97
2023-02-18T07:02:16.847Z,4.70
2023-02-18T07:05:20.403Z,3.00
2023-02-18T07:08:24.174Z,3.65
2023-02-18T07:11:27.873Z,4.80
2023-02-18T07:14:30.805Z,8.13
2023-02-18T07:17:34.287Z,4.90
2023-02-18T07:20:37.972Z,4.75
2023-02-18T07:23:41.927Z,5.55
2023-02-18T07:26:45.519Z,3.80
2023-02-18T07:29:50.339Z,3.85
2023-02-18T07:32:53.914Z,4.82
2023-02-18T07:35:59.409Z,5.40
2023-02-18T07:39:02.328Z,4.05
2023-02-18T07:42:06.438Z,3.67
2023-02-18T07:45:10.965Z,4.82
2023-02-18T07:48:14.535Z,5.70
2023-02-18T07:51:18.246Z,3.97
2023-02-18T07:54:21.742Z,3.80
2023-02-18T07:57:24.960Z,7.55
2023-02-18T08:00:28.699Z,4.72
2023-02-18T08:03:33.115Z,6.43
2023-02-18T08:06:42.515Z,5.10
2023-02-18T08:09:45.516Z,5.50
2023-02-18T08:12:49.209Z,5.32
2023-02-18T08:15:55.106Z,4.85
2023-02-18T08:18:58.805Z,5.30
2023-02-18T08:22:04.712Z,6.32
2023-02-18T08:25:08.380Z,7.03
2023-02-18T08:28:13.899Z,7.32
2023-02-18T08:31:26.054Z,9.73
2023-02-18T08:34:29.700Z,7.78
2023-02-18T08:37:52.991Z,6.50
2023-02-18T08:41:05.652Z,6.30
2023-02-18T08:44:09.680Z,7.32
2023-02-18T08:48:16.817Z,6.93
2023-02-18T08:50:37.198Z,6.82
2023-02-18T08:53:40.643Z,6.50
2023-02-18T08:56:44.421Z,6.57
2023-02-18T08:59:47.436Z,6.45
2023-02-18T09:02:50.789Z,5.15
2023-02-18T09:05:54.365Z,6.60
2023-02-18T09:08:58.440Z,6.88
2023-02-18T09:12:02.186Z,6.93
2023-02-18T09:15:06.977Z,7.75
2023-02-18T09:18:10.627Z,10.43
2023-02-18T09:21:16.906Z,7.72
2023-02-18T09:24:22.551Z,12.82
2023-02-18T09:27:25.992Z,14.37
2023-02-18T09:30:29.128Z,13.18
2023-02-18T09:33:33.116Z,11.48
2023-02-18T09:36:36.741Z,9.23
2023-02-18T09:39:40.714Z,8.65
2023-02-18T09:42:44.856Z,9.40
2023-02-18T09:45:48.796Z,8.70
2023-02-18T09:48:53.755Z,9.17
2023-02-18T09:51:58.397Z,10.98
2023-02-18T09:55:03.793Z,8.80
2023-02-18T09:58:15.615Z,8.27
2023-02-18T10:01:38.022Z,9.05
2023-02-18T10:04:46.850Z,8.95
2023-02-18T10:07:54.481Z,9.30
2023-02-18T10:10:57.952Z,9.48
2023-02-18T10:14:03.397Z,10.55
2023-02-18T10:17:08.248Z,9.55
2023-02-18T10:20:21.015Z,9.97
2023-02-18T10:23:25.903Z,10.52
2023-02-18T10:26:32.374Z,11.90
2023-02-18T10:29:37.626Z,11.17
2023-02-18T10:32:45.019Z,11.30
2023-02-18T10:35:57.305Z,11.52
2023-02-18T10:39:19.462Z,12.25
2023-02-18T10:42:32.245Z,10.30
2023-02-18T10:46:25.166Z,10.30
2023-02-18T10:49:49.948Z,11.23
2023-02-18T10:52:57.195Z,11.07
2023-02-18T10:56:01.122Z,10.85
2023-02-18T10:59:31.214Z,11.73
2023-02-18T11:02:35.120Z,11.90
2023-02-18T11:05:39.757Z,11.82
2023-02-18T11:08:46.169Z,11.30
2023-02-18T11:11:53.661Z,12.65
2023-02-18T11:15:19.594Z,9.68
2023-02-18T11:18:43.729Z,11.18
2023-02-18T11:21:47.116Z,8.45
2023-02-18T11:24:56.750Z,9.90
2023-02-18T11:28:22.469Z,8.73
2023-02-18T11:31:28.387Z,10.70
2023-02-18T11:34:34.039Z,9.50
2023-02-18T11:37:38.763Z,12.02
2023-02-18T11:40:41.820Z,10.98
2023-02-18T11:43:49.896Z,13.27
2023-02-18T11:47:15.932Z,14.63
2023-02-18T11:50:23.686Z,16.27
2023-02-18T11:53:36.470Z,12.00
2023-02-18T12:00:22.687Z,11.90
2023-02-18T12:04:13.774Z,12.55
2023-02-18T12:07:38.375Z,12.20
2023-02-18T12:10:50.799Z,9.55
2023-02-18T12:13:58.009Z,9.40
2023-02-18T12:17:13.658Z,12.32
2023-02-18T12:20:35.693Z,11.07
2023-02-18T12:24:04.891Z,8.80
2023-02-18T12:27:21.254Z,11.63
2023-02-18T12:30:58.832Z,11.83
2023-02-18T12:34:20.600Z,11.75
2023-02-18T12:37:49.131Z,15.00
2023-02-18T12:41:07.393Z,12.27
2023-02-18T12:44:32.237Z,15.38
2023-02-18T12:47:47.774Z,11.02
2023-02-18T12:51:24.342Z,8.43
2023-02-18T12:54:54.514Z,11.73
2023-02-18T12:58:25.683Z,8.63
2023-02-18T13:01:44.394Z,9.75
2023-02-18T13:05:12.375Z,11.60
2023-02-18T13:08:40.036Z,9.68
2023-02-18T13:12:09.080Z,10.40
2023-02-18T13:15:19.596Z,11.23
2023-02-18T13:18:32.012Z,9.88
2023-02-18T13:21:38.705Z,13.00
2023-02-18T13:24:46.279Z,15.18
2023-02-18T13:28:03.958Z,13.85
2023-02-18T13:31:25.207Z,13.18
2023-02-18T13:34:33.862Z,11.63
2023-02-18T13:37:47.878Z,9.50
2023-02-18T13:40:52.263Z,8.25
2023-02-18T13:43:55.677Z,7.93
2023-02-18T13:47:00.187Z,8.67
2023-02-18T13:50:22.827Z,11.20
2023-02-18T13:53:26.992Z,7.47
2023-02-18T13:56:32.917Z,7.78
2023-02-18T13:59:47.018Z,5.28
2023-02-18T14:03:19.890Z,7.82
2023-02-18T14:06:28.119Z,11.32
2023-02-18T14:09:42.729Z,11.03
2023-02-18T14:12:58.461Z,6.18
2023-02-18T14:16:02.795Z,9.50
2023-02-18T14:19:25.615Z,13.67
2023-02-18T14:22:40.933Z,12.07
2023-02-18T14:26:06.376Z,9.45
2023-02-18T14:32:42.556Z,14.23
2023-02-18T14:36:28.578Z,17.67
2023-02-18T14:40:12.591Z,11.60
2023-02-18T14:43:27.053Z,22.53
2023-02-18T14:46:49.191Z,27.63
2023-02-18T14:50:04.616Z,22.55
2023-02-18T14:53:19.338Z,17.83
2023-02-18T14:56:23.998Z,17.90
2023-02-18T14:59:30.453Z,15.63
2023-02-18T15:02:39.464Z,15.43
2023-02-18T15:05:44.594Z,22.65
2023-02-18T15:08:49.603Z,24.00
2023-02-18T15:12:05.049Z,25.40
2023-02-18T15:15:14.827Z,21.60
2023-02-18T15:18:24.648Z,23.00
2023-02-18T15:21:45.690Z,16.08
2023-02-18T15:24:50.854Z,12.30
2023-02-18T15:27:55.844Z,16.52
2023-02-18T15:31:01.851Z,12.27
2023-02-18T15:34:30.626Z,18.75
2023-02-18T15:37:33.553Z,12.35
2023-02-18T15:40:41.368Z,19.05
2023-02-18T15:44:01.570Z,19.65
2023-02-18T15:47:09.588Z,17.20
2023-02-18T15:50:22.669Z,14.57
2023-02-18T15:53:27.030Z,13.45
2023-02-18T15:56:36.361Z,13.83
2023-02-18T15:59:46.420Z,4.35
2023-02-18T16:02:56.854Z,14.32
2023-02-18T16:06:13.512Z,8.80
2023-02-18T16:09:24.960Z,10.93
2023-02-18T16:12:32.457Z,11.75
2023-02-18T16:15:42.834Z,10.50
2023-02-18T16:18:46.934Z,6.60
2023-02-18T16:21:50.259Z,12.15
2023-02-18T16:25:01.104Z,10.52
2023-02-18T16:28:04.164Z,12.47
2023-02-18T16:31:07.883Z,11.63
2023-02-18T16:34:11.617Z,6.40
2023-02-18T16:37:33.878Z,8.73
2023-02-18T16:40:41.125Z,10.93
2023-02-18T16:43:45.408Z,7.28
2023-02-18T16:46:49.209Z,6.80
2023-02-18T16:49:52.888Z,6.03
2023-02-18T16:52:56.610Z,7.13
2023-02-18T16:56:01.774Z,8.48
2023-02-18T16:59:06.023Z,12.80
2023-02-18T17:02:21.032Z,11.15
2023-02-18T17:05:31.030Z,10.80
2023-02-18T17:08:34.316Z,9.05
2023-02-18T17:11:37.387Z,6.72
2023-02-18T17:14:41.465Z,6.03
2023-02-18T17:17:45.050Z,5.13
2023-02-18T17:20:50.026Z,5.47
2023-02-18T17:23:53.542Z,4.22
2023-02-18T17:26:57.109Z,2.97
2023-02-18T17:30:00.122Z,3.77
2023-02-18T17:33:05.129Z,4.03
2023-02-18T17:36:10.857Z,4.95
2023-02-18T17:39:16.569Z,6.57
2023-02-18T17:42:21.116Z,7.72
2023-02-18T17:45:41.309Z,3.60
2023-02-18T17:48:46.361Z,4.80
2023-02-18T17:51:50.553Z,3.93
2023-02-18T17:54:53.416Z,2.78
2023-02-18T17:57:57.087Z,6.60
2023-02-18T18:01:00.350Z,5.37
2023-02-18T18:04:03.663Z,5.07
2023-02-18T18:07:07.676Z,5.55
2023-02-18T18:10:11.007Z,4.88
2023-02-18T18:13:24.597Z,6.18
2023-02-18T18:16:28.264Z,6.18
2023-02-18T18:19:32.722Z,7.07
2023-02-18T18:22:36.033Z,6.93
2023-02-18T18:25:41.182Z,7.13
2023-02-18T18:28:44.466Z,4.40
2023-02-18T18:31:48.249Z,4.17
2023-02-18T18:34:52.161Z,7.57
2023-02-18T18:37:56.233Z,10.05
2023-02-18T18:40:59.632Z,7.53
2023-02-18T18:44:05.136Z,3.35
2023-02-18T18:47:08.356Z,7.25
2023-02-18T18:50:12.204Z,5.45
2023-02-18T18:53:30.944Z,16.53
2023-02-18T18:56:35.196Z,12.60
2023-02-18T18:59:38.624Z,10.63
2023-02-18T19:02:42.452Z,13.17
2023-02-18T19:05:48.097Z,6.07
2023-02-18T19:08:51.787Z,1.73
2023-02-18T19:11:56.432Z,2.80
2023-02-18T19:15:00.062Z,1.33
2023-02-18T19:18:04.002Z,4.82
2023-02-18T19:21:07.942Z,8.95
2023-02-18T19:24:12.154Z,6.67
2023-02-18T19:27:17.763Z,8.00
2023-02-18T19:30:24.002Z,15.65
2023-02-18T19:33:27.700Z,16.70
2023-02-18T19:36:31.641Z,8.05
2023-02-18T19:39:36.286Z,5.20
2023-02-18T19:42:40.295Z,4.45
2023-02-18T19:45:46.201Z,3.40
2023-02-18T19:48:52.838Z,1.58
2023-02-18T19:51:57.917Z,3.53
2023-02-18T19:55:01.533Z,4.33
2023-02-18T19:58:05.398Z,3.95
2023-02-18T20:01:15.662Z,2.58
2023-02-18T20:04:19.628Z,3.00
2023-02-18T20:07:23.445Z,3.08
2023-02-18T20:10:27.122Z,2.60
2023-02-18T20:13:30.665Z,2.72
2023-02-18T20:16:34.610Z,2.75
2023-02-18T20:19:38.692Z,3.50
2023-02-18T20:22:42.913Z,3.22
2023-02-18T20:25:48.157Z,5.60
2023-02-18T20:28:52.468Z,3.78
2023-02-18T20:31:56.984Z,3.40
2023-02-18T20:35:01.400Z,0.70
2023-02-18T20:38:04.993Z,2.55
2023-02-18T20:41:12.493Z,1.08
2023-02-18T20:44:16.724Z,2.55
2023-02-18T20:47:20.279Z,0.88
2023-02-18T20:50:24.682Z,1.92
2023-02-18T20:53:32.420Z,7.03
2023-02-18T20:56:38.413Z,7.10
2023-02-18T20:59:42.232Z,5.13
2023-02-18T21:02:45.293Z,3.53
2023-02-18T21:05:56.430Z,5.37
2023-02-18T21:09:00.134Z,4.78
2023-02-18T21:12:04.214Z,6.55
2023-02-18T21:15:08.176Z,4.70
2023-02-18T21:18:12.085Z,3.63
2023-02-18T21:21:16.144Z,2.17
2023-02-18T21:24:20.204Z,8.98
2023-02-18T21:27:23.897Z,7.33
2023-02-18T21:30:28.370Z,2.35
2023-02-18T21:33:32.353Z,2.55
2023-02-18T21:36:36.020Z,1.90
2023-02-18T21:39:38.915Z,9.48
2023-02-18T21:42:42.538Z,1.65
2023-02-18T21:45:45.485Z,3.60
2023-02-18T21:49:09.993Z,6.07
2023-02-18T21:52:13.764Z,3.55
2023-02-18T21:55:17.364Z,3.53
2023-02-18T21:58:20.569Z,15.63
2023-02-18T22:01:26.476Z,4.20
2023-02-18T22:04:32.950Z,3.00
2023-02-18T22:07:36.855Z,1.60
2023-02-18T22:10:40.810Z,3.85
2023-02-18T22:13:44.979Z,3.03
2023-02-18T22:16:49.081Z,4.93
2023-02-18T22:19:53.106Z,7.13
2023-02-18T22:22:56.745Z,3.95
2023-02-18T22:26:07.294Z,5.88
2023-02-18T22:29:12.404Z,10.70
2023-02-18T22:32:16.296Z,6.25
2023-02-18T22:35:19.906Z,12.63
2023-02-18T22:38:23.846Z,8.70
2023-02-18T22:41:29.643Z,14.30
2023-02-18T22:44:32.977Z,13.27
2023-02-18T22:47:36.568Z,14.65
2023-02-18T22:50:40.239Z,13.10
2023-02-18T22:53:44.977Z,5.57
2023-02-18T22:56:48.908Z,7.45
2023-02-18T22:59:52.599Z,8.23
2023-02-18T23:02:56.262Z,3.20
2023-02-18T23:06:07.089Z,5.82
2023-02-18T23:09:15.661Z,4.17
2023-02-18T23:12:18.900Z,4.75
2023-02-18T23:15:21.862Z,22.13
2023-02-18T23:18:25.150Z,5.18
2023-02-18T23:21:29.188Z,6.53
2023-02-18T23:24:39.251Z,8.38
2023-02-18T23:27:42.194Z,21.90
2023-02-18T23:30:45.523Z,11.97
2023-02-18T23:33:51.054Z,9.05
2023-02-18T23:36:54.580Z,5.30
2023-02-18T23:39:58.174Z,9.10
2023-02-18T23:43:01.480Z,5.00
2023-02-18T23:46:04.617Z,6.75
2023-02-18T23:49:08.137Z,8.75
2023-02-18T23:52:11.757Z,5.15
2023-02-18T23:55:14.609Z,9.13
2023-02-18T23:58:18.562Z,10.32
